Time;durP1;ratioP1;P1;durP2;ratioP2;P2;SDS_P1;SDS_P2;PMS_P1;PMS_P2;Temp;Humidity;BMP_temperature;BMP_pressure;BME280_temperature;BME280_humidity;BME280_pressure;Samples;Min_cycle;Max_cycle;Signal;HPM_P1;HPM_P2
2022/09/09 00:05:41;;;;;;;3.40;1.30;;;18.40;81.00;;;;;;20677340;28;20234;-73
2022/09/09 00:15:57;;;;;;;3.60;1.50;;;18.30;81.90;;;;;;20676342;28;20784;-73
2022/09/09 00:26:30;;;;;;;2.60;1.43;;;18.20;82.80;;;;;;20676219;28;20293;-76
2022/09/09 00:36:34;;;;;;;5.50;1.30;;;18.20;83.90;;;;;;20675155;28;20206;-74
2022/09/09 00:47:09;;;;;;;3.23;1.17;;;18.00;86.10;;;;;;20674314;28;20645;-76
2022/09/09 00:57:11;;;;;;;1.83;1.00;;;18.10;87.90;;;;;;20674370;28;20652;-72
2022/09/09 01:07:19;;;;;;;3.87;1.27;;;18.20;89.40;;;;;;20672906;28;20268;-73
2022/09/09 01:17:26;;;;;;;3.67;1.37;;;18.10;90.40;;;;;;20671809;28;20238;-74
2022/09/09 01:27:28;;;;;;;1.83;1.10;;;18.10;91.00;;;;;;20672714;28;20215;-73
2022/09/09 01:37:29;;;;;;;3.53;1.10;;;18.00;91.60;;;;;;20670290;28;20244;-74
2022/09/09 01:47:31;;;;;;;2.00;1.20;;;17.90;92.40;;;;;;20669902;28;20206;-73
2022/09/09 01:57:57;;;;;;;2.73;1.30;;;18.00;93.10;;;;;;20668616;28;20238;-72
2022/09/09 02:08:08;;;;;;;5.40;1.10;;;18.00;93.90;;;;;;20668096;28;20271;-72
2022/09/09 02:18:13;;;;;;;4.53;1.37;;;18.00;94.20;;;;;;20667833;28;20738;-73
2022/09/09 02:28:20;;;;;;;2.40;1.20;;;18.00;94.50;;;;;;20667584;28;20668;-74
2022/09/09 02:38:26;;;;;;;2.87;1.30;;;18.00;94.80;;;;;;20666828;28;20243;-73
2022/09/09 02:49:03;;;;;;;2.00;1.20;;;18.00;95.20;;;;;;20666417;28;20217;-73
2022/09/09 02:59:05;;;;;;;5.03;1.33;;;18.00;95.40;;;;;;20629181;28;20722;-73
2022/09/09 03:09:10;;;;;;;6.93;1.50;;;18.00;95.50;;;;;;20673981;28;20667;-72
2022/09/09 03:19:11;;;;;;;3.73;1.50;;;17.90;95.70;;;;;;20680928;28;20786;-73
2022/09/09 03:29:14;;;;;;;4.90;1.63;;;17.80;96.20;;;;;;20680402;28;20267;-75
2022/09/09 03:39:16;;;;;;;2.43;1.43;;;17.80;96.30;;;;;;20679841;28;20265;-73
2022/09/09 03:49:17;;;;;;;2.40;1.30;;;17.90;96.40;;;;;;20678806;28;20217;-74
2022/09/09 03:59:21;;;;;;;2.93;1.50;;;17.90;96.40;;;;;;20678178;28;20249;-74
2022/09/09 04:09:23;;;;;;;3.27;1.50;;;17.80;96.60;;;;;;20677700;28;20210;-72
2022/09/09 04:19:25;;;;;;;7.13;1.70;;;17.80;96.70;;;;;;20674999;28;20256;-71
2022/09/09 04:29:27;;;;;;;5.60;1.90;;;17.60;96.80;;;;;;20675639;28;20235;-72
2022/09/09 04:39:28;;;;;;;3.50;2.00;;;17.60;97.10;;;;;;20674149;28;20240;-73
2022/09/09 04:49:31;;;;;;;5.50;2.00;;;17.60;97.20;;;;;;20674312;28;20305;-71
2022/09/09 04:59:32;;;;;;;5.03;2.07;;;17.60;97.30;;;;;;20673354;28;20235;-73
2022/09/09 05:09:34;;;;;;;4.50;1.83;;;17.60;97.20;;;;;;20670062;28;20212;-72
2022/09/09 05:19:36;;;;;;;4.73;1.93;;;17.70;97.00;;;;;;20670909;28;20265;-72
2022/09/09 05:29:38;;;;;;;5.83;1.90;;;17.70;96.50;;;;;;20653073;28;20210;-72
2022/09/09 05:39:40;;;;;;;2.60;1.40;;;17.80;96.20;;;;;;20669179;28;20781;-74
2022/09/09 05:49:42;;;;;;;3.23;1.40;;;17.90;95.70;;;;;;20662143;28;20203;-72
2022/09/09 05:59:44;;;;;;;3.60;1.30;;;18.00;95.30;;;;;;20646499;28;20278;-72
2022/09/09 06:09:45;;;;;;;3.50;1.27;;;18.10;94.80;;;;;;20661740;28;20218;-73
2022/09/09 06:19:47;;;;;;;2.47;1.10;;;18.20;94.30;;;;;;20662447;28;20242;-73
2022/09/09 06:29:48;;;;;;;3.80;1.03;;;18.20;94.00;;;;;;20648940;28;20365;-73
2022/09/09 06:39:50;;;;;;;3.33;1.10;;;18.20;93.80;;;;;;20668595;28;20365;-72
2022/09/09 06:49:52;;;;;;;3.20;1.30;;;18.20;93.70;;;;;;20693418;28;20580;-72
2022/09/09 06:59:54;;;;;;;2.70;1.00;;;18.30;93.80;;;;;;20692039;28;20238;-73
2022/09/09 07:09:55;;;;;;;3.10;1.00;;;18.30;93.30;;;;;;20691873;28;20215;-73
2022/09/09 07:19:57;;;;;;;3.03;1.00;;;18.50;93.10;;;;;;20687170;28;20249;-73
2022/09/09 07:29:59;;;;;;;2.37;1.00;;;18.70;92.90;;;;;;20683704;28;20676;-72
2022/09/09 07:40:03;;;;;;;2.17;0.83;;;18.90;92.70;;;;;;20683825;28;20814;-73
2022/09/09 07:50:05;;;;;;;2.57;1.10;;;19.10;92.40;;;;;;20683596;28;20216;-73
2022/09/09 08:00:10;;;;;;;2.07;1.10;;;19.20;91.90;;;;;;20669114;28;20252;-73
2022/09/09 08:10:14;;;;;;;5.93;1.30;;;19.40;91.60;;;;;;20669591;28;20287;-73
2022/09/09 08:20:16;;;;;;;4.80;1.17;;;19.70;91.00;;;;;;20668683;28;20256;-72
2022/09/09 08:30:17;;;;;;;4.23;1.20;;;19.90;90.70;;;;;;20667969;28;20202;-71
2022/09/09 08:40:26;;;;;;;3.60;1.20;;;20.10;90.30;;;;;;20667682;28;20248;-73
2022/09/09 08:50:38;;;;;;;8.70;4.30;;;20.10;89.70;;;;;;20666896;28;20220;-73
2022/09/09 09:01:09;;;;;;;7.00;1.40;;;20.40;89.30;;;;;;20665347;28;20237;-71
2022/09/09 09:11:11;;;;;;;7.17;1.67;;;20.60;88.50;;;;;;20664842;28;20204;-75
2022/09/09 09:21:20;;;;;;;3.80;1.37;;;20.60;87.30;;;;;;20664421;28;20242;-74
2022/09/09 09:31:23;;;;;;;5.10;1.50;;;20.70;86.60;;;;;;20663344;28;20216;-73
2022/09/09 09:41:39;;;;;;;5.73;2.10;;;21.00;86.10;;;;;;20663223;28;20340;-74
2022/09/09 09:51:41;;;;;;;5.97;1.50;;;21.10;84.30;;;;;;20664728;28;20218;-74
2022/09/09 10:01:43;;;;;;;6.13;1.50;;;21.30;83.60;;;;;;20664226;28;20837;-77
2022/09/09 10:11:50;;;;;;;4.53;1.50;;;21.70;82.60;;;;;;20649226;28;20230;-75
2022/09/09 10:22:17;;;;;;;4.53;1.40;;;21.80;78.60;;;;;;20660976;28;20691;-79
2022/09/09 10:32:33;;;;;;;5.20;1.40;;;21.90;76.20;;;;;;20643205;28;20205;-82
2022/09/09 10:42:36;;;;;;;6.70;1.13;;;22.00;74.20;;;;;;20660577;28;20244;-78
2022/09/09 10:53:16;;;;;;;5.80;1.10;;;21.10;77.60;;;;;;20659941;28;20207;-80
2022/09/09 11:03:29;;;;;;;2.03;1.03;;;19.40;83.30;;;;;;20581687;28;20657;-79
2022/09/09 11:13:51;;;;;;;5.03;1.40;;;18.90;86.40;;;;;;20660499;28;20239;-79
2022/09/09 11:23:59;;;;;;;2.83;0.80;;;18.70;89.60;;;;;;20620952;28;20243;-78
2022/09/09 11:34:19;;;;;;;3.73;1.33;;;18.80;91.20;;;;;;20676102;28;20217;-73
2022/09/09 11:44:29;;;;;;;2.57;1.20;;;19.10;92.20;;;;;;20677609;28;20276;-68
2022/09/09 11:54:34;;;;;;;4.90;1.33;;;20.00;93.50;;;;;;20672685;28;20236;-67
2022/09/09 12:04:51;;;;;;;6.17;1.97;;;20.60;93.40;;;;;;20672541;28;20234;-67
2022/09/09 12:15:06;;;;;;;5.73;1.77;;;20.60;93.20;;;;;;20674176;28;20236;-68
2022/09/09 12:25:46;;;;;;;4.83;2.40;;;20.90;93.10;;;;;;20672975;28;20650;-67
2022/09/09 12:36:00;;;;;;;5.63;1.17;;;21.10;91.80;;;;;;20673823;28;20213;-64
2022/09/09 12:46:08;;;;;;;4.70;2.30;;;21.10;90.60;;;;;;20672259;28;20281;-69
2022/09/09 12:56:22;;;;;;;3.50;1.50;;;21.20;89.30;;;;;;20672710;28;20340;-66
2022/09/09 13:06:34;;;;;;;5.07;1.10;;;21.70;88.80;;;;;;20670335;28;20722;-68
2022/09/09 13:16:36;;;;;;;7.50;1.07;;;22.10;85.30;;;;;;20670251;28;20707;-72
2022/09/09 13:26:44;;;;;;;3.00;1.17;;;22.30;81.80;;;;;;20670353;28;20304;-71
2022/09/09 13:36:48;;;;;;;3.87;1.00;;;22.50;78.40;;;;;;20668382;28;20253;-75
2022/09/09 13:47:32;;;;;;;3.93;0.90;;;22.60;72.40;;;;;;20648630;28;20233;-76
2022/09/09 13:57:35;;;;;;;2.45;0.80;;;22.90;68.30;;;;;;20574578;28;20264;-77
2022/09/09 14:07:39;;;;;;;2.60;0.90;;;22.80;65.90;;;;;;20667935;28;20210;-77
2022/09/09 14:17:41;;;;;;;5.23;1.20;;;22.60;65.30;;;;;;20666430;28;20234;-76
2022/09/09 14:27:44;;;;;;;1.97;0.80;;;22.50;64.60;;;;;;20666128;28;20745;-77
2022/09/09 14:37:46;;;;;;;3.27;1.87;;;22.50;64.90;;;;;;20667422;28;20202;-76
2022/09/09 14:47:49;;;;;;;2.30;1.10;;;22.30;64.70;;;;;;20666048;28;20214;-77
2022/09/09 14:57:51;;;;;;;3.47;1.27;;;22.10;64.50;;;;;;20665834;28;20256;-76
2022/09/09 15:07:52;;;;;;;4.53;1.33;;;20.50;75.70;;;;;;20678247;28;20212;-77
2022/09/09 15:17:54;;;;;;;9.27;3.07;;;20.00;81.40;;;;;;20680184;28;20241;-77
2022/09/09 15:27:56;;;;;;;7.93;1.20;;;19.70;86.40;;;;;;20680079;28;20266;-77
2022/09/09 15:38:02;;;;;;;3.93;1.10;;;19.70;90.30;;;;;;20680234;28;20641;-77
2022/09/09 15:48:04;;;;;;;3.80;1.23;;;19.80;91.70;;;;;;20678431;28;20209;-77
2022/09/09 15:58:07;;;;;;;4.20;1.30;;;20.00;92.80;;;;;;20677564;28;20690;-77
2022/09/09 16:08:09;;;;;;;5.77;1.03;;;19.90;93.40;;;;;;20677648;28;20661;-77
2022/09/09 16:18:10;;;;;;;3.33;1.20;;;20.00;93.50;;;;;;20675467;28;20240;-75
2022/09/09 16:28:12;;;;;;;3.07;1.00;;;19.90;93.20;;;;;;20676325;28;20217;-76
2022/09/09 16:38:14;;;;;;;3.33;1.00;;;19.90;93.00;;;;;;20675622;28;20228;-76
2022/09/09 16:48:16;;;;;;;3.63;1.10;;;19.90;92.20;;;;;;20657342;28;20670;-76
2022/09/09 16:58:17;;;;;;;3.73;1.00;;;19.80;91.40;;;;;;20673738;28;20571;-74
2022/09/09 17:08:19;;;;;;;6.77;3.83;;;19.70;90.40;;;;;;20673400;28;20220;-74
2022/09/09 17:18:22;;;;;;;2.93;1.23;;;19.50;89.80;;;;;;20672104;28;20653;-76
2022/09/09 17:28:27;;;;;;;4.27;1.50;;;19.40;89.80;;;;;;20671120;28;20212;-76
2022/09/09 17:38:29;;;;;;;5.40;1.13;;;19.40;90.10;;;;;;20670289;28;20270;-76
2022/09/09 17:48:31;;;;;;;5.33;2.00;;;19.40;90.30;;;;;;20669204;28;20206;-77
2022/09/09 17:58:33;;;;;;;5.30;1.90;;;19.40;90.60;;;;;;20668411;28;20231;-76
2022/09/09 18:08:35;;;;;;;1.87;0.97;;;19.40;90.80;;;;;;20668435;28;20262;-76
2022/09/09 18:18:37;;;;;;;3.07;1.50;;;19.30;90.70;;;;;;20667529;28;20716;-77
2022/09/09 18:28:41;;;;;;;2.77;1.30;;;19.20;91.50;;;;;;20667236;28;20572;-76
2022/09/09 18:38:42;;;;;;;2.73;1.40;;;19.10;92.50;;;;;;20666738;28;20280;-76
2022/09/09 18:48:46;;;;;;;1.67;1.07;;;18.90;93.20;;;;;;20666567;28;20212;-76
2022/09/09 18:58:52;;;;;;;2.53;1.50;;;18.80;93.70;;;;;;20666201;28;20238;-78
2022/09/09 19:09:00;;;;;;;3.47;1.20;;;18.70;94.00;;;;;;20666280;28;20211;-80
2022/09/09 19:19:07;;;;;;;3.63;1.43;;;18.50;93.70;;;;;;20663057;28;20301;-81
2022/09/09 19:29:15;;;;;;;3.40;1.30;;;18.50;93.50;;;;;;20663368;28;20227;-79
2022/09/09 19:39:18;;;;;;;3.47;1.90;;;18.40;93.70;;;;;;20663945;28;20230;-77
2022/09/09 19:49:20;;;;;;;2.97;1.47;;;18.20;94.10;;;;;;20667989;28;20446;-78
2022/09/09 19:59:21;;;;;;;5.90;1.70;;;18.00;94.50;;;;;;20679137;28;20245;-79
2022/09/09 20:09:25;;;;;;;4.70;1.33;;;17.90;94.90;;;;;;20652113;28;20217;-76
2022/09/09 20:19:27;;;;;;;2.43;1.10;;;17.80;94.80;;;;;;20677063;28;20607;-77
2022/09/09 20:29:29;;;;;;;3.10;1.07;;;17.90;94.40;;;;;;20675093;28;20571;-80
2022/09/09 20:39:30;;;;;;;2.80;0.90;;;18.00;93.90;;;;;;20673580;28;20721;-81
2022/09/09 20:49:35;;;;;;;4.13;1.07;;;18.10;93.50;;;;;;20672357;28;20242;-77
2022/09/09 20:59:37;;;;;;;1.90;0.90;;;18.10;93.00;;;;;;20671449;28;20241;-81
2022/09/09 21:09:39;;;;;;;2.20;0.90;;;18.10;92.80;;;;;;20626575;28;20216;-78
2022/09/09 21:19:41;;;;;;;2.47;0.83;;;18.10;92.60;;;;;;20589358;28;20260;-80
2022/09/09 21:29:43;;;;;;;2.60;0.90;;;18.10;92.60;;;;;;20602795;28;20225;-80
2022/09/09 21:39:46;;;;;;;1.27;0.80;;;18.10;92.50;;;;;;20668958;28;20238;-78
2022/09/09 21:49:48;;;;;;;2.77;0.97;;;18.10;92.20;;;;;;20667904;28;20241;-82
2022/09/09 21:59:49;;;;;;;1.53;0.70;;;18.10;92.40;;;;;;20667303;28;20238;-80
2022/09/09 22:09:51;;;;;;;0.90;0.70;;;18.00;92.60;;;;;;20666070;28;20205;-80
2022/09/09 22:19:53;;;;;;;1.50;0.80;;;18.00;92.90;;;;;;20665827;28;20242;-77
2022/09/09 22:29:54;;;;;;;2.50;1.00;;;17.80;93.30;;;;;;20665866;28;20208;-80
2022/09/09 22:39:56;;;;;;;1.93;1.03;;;17.70;93.80;;;;;;20665037;28;20312;-79
2022/09/09 22:49:58;;;;;;;0.97;0.87;;;17.70;94.10;;;;;;20664527;28;20211;-78
2022/09/09 23:00:00;;;;;;;2.20;1.10;;;17.70;94.50;;;;;;20664250;28;20287;-75
2022/09/09 23:10:04;;;;;;;3.40;1.03;;;17.70;94.80;;;;;;20664569;28;20205;-79
2022/09/09 23:20:09;;;;;;;2.30;1.00;;;17.70;95.10;;;;;;20664588;28;20732;-83
2022/09/09 23:30:11;;;;;;;1.00;0.87;;;17.70;95.30;;;;;;20678062;28;20765;-75
2022/09/09 23:40:12;;;;;;;1.63;1.07;;;17.70;95.30;;;;;;20678553;28;20245;-78
2022/09/09 23:50:14;;;;;;;4.70;1.10;;;17.60;95.10;;;;;;20677020;28;20218;-79
